createdAt,value
2023-04-17T00:00:24.220Z,5.82
2023-04-17T00:01:24.239Z,5.82
2023-04-17T00:02:24.370Z,5.82
2023-04-17T00:03:24.279Z,5.81
2023-04-17T00:04:24.335Z,5.79
2023-04-17T00:05:24.312Z,5.78
2023-04-17T00:06:24.139Z,5.77
2023-04-17T00:07:24.178Z,5.76
2023-04-17T00:08:24.142Z,5.76
2023-04-17T00:09:24.107Z,5.75
2023-04-17T00:10:24.120Z,5.74
2023-04-17T00:11:24.080Z,5.74
2023-04-17T00:12:24.060Z,5.74
2023-04-17T00:13:24.085Z,5.73
2023-04-17T00:14:24.035Z,5.72
2023-04-17T00:15:24.049Z,5.71
2023-04-17T00:16:24.075Z,5.70
2023-04-17T00:17:24.071Z,5.69
2023-04-17T00:18:23.982Z,5.68
2023-04-17T00:19:24.012Z,5.66
2023-04-17T00:20:23.954Z,5.65
2023-04-17T00:21:23.969Z,5.64
2023-04-17T00:22:23.928Z,5.63
2023-04-17T00:23:23.937Z,5.62
2023-04-17T00:24:23.918Z,5.61
2023-04-17T00:25:23.937Z,5.60
2023-04-17T00:26:23.905Z,5.60
2023-04-17T00:27:23.867Z,5.59
2023-04-17T00:28:23.860Z,5.59
2023-04-17T00:29:23.861Z,5.60
2023-04-17T00:30:23.850Z,5.60
2023-04-17T00:31:23.905Z,5.61
2023-04-17T00:32:23.841Z,5.62
2023-04-17T00:33:23.821Z,5.63
2023-04-17T00:34:23.793Z,5.64
2023-04-17T00:35:23.781Z,5.65
2023-04-17T00:36:23.766Z,5.65
2023-04-17T00:37:23.759Z,5.64
2023-04-17T00:38:23.748Z,5.64
2023-04-17T00:39:23.725Z,5.63
2023-04-17T00:40:23.694Z,5.61
2023-04-17T00:41:23.714Z,5.60
2023-04-17T00:42:23.713Z,5.60
2023-04-17T00:43:23.672Z,5.60
2023-04-17T00:44:23.663Z,5.60
2023-04-17T00:45:23.649Z,5.60
2023-04-17T00:46:23.688Z,5.59
2023-04-17T00:47:23.639Z,5.59
2023-04-17T00:48:23.601Z,5.58
2023-04-17T00:49:23.599Z,5.57
2023-04-17T00:50:23.575Z,5.55
2023-04-17T00:51:23.572Z,5.54
2023-04-17T00:52:23.570Z,5.53
2023-04-17T00:53:23.549Z,5.54
2023-04-17T00:54:23.534Z,5.54
2023-04-17T00:55:23.517Z,5.54
2023-04-17T00:56:23.512Z,5.54
2023-04-17T00:57:23.492Z,5.54
2023-04-17T00:58:23.477Z,5.55
2023-04-17T00:59:23.466Z,5.56
2023-04-17T01:00:23.454Z,5.57
2023-04-17T01:01:23.549Z,5.56
2023-04-17T01:02:23.513Z,5.56
2023-04-17T01:03:23.582Z,5.56
2023-04-17T01:04:23.515Z,5.56
2023-04-17T01:05:23.404Z,5.57
2023-04-17T01:06:23.385Z,5.58
2023-04-17T01:07:23.397Z,5.59
2023-04-17T01:08:23.363Z,5.59
2023-04-17T01:09:23.338Z,5.59
2023-04-17T01:10:23.367Z,5.59
2023-04-17T01:11:23.300Z,5.59
2023-04-17T01:12:23.293Z,5.59
2023-04-17T01:13:23.278Z,5.58
2023-04-17T01:14:23.258Z,5.58
2023-04-17T01:15:23.254Z,5.58
2023-04-17T01:16:23.310Z,5.58
2023-04-17T01:17:23.270Z,5.59
2023-04-17T01:18:23.201Z,5.59
2023-04-17T01:19:23.241Z,5.59
2023-04-17T01:20:23.193Z,5.59
2023-04-17T01:21:23.179Z,5.60
2023-04-17T01:22:23.182Z,5.60
2023-04-17T01:23:23.143Z,5.60
2023-04-17T01:24:23.133Z,5.60
2023-04-17T01:25:23.172Z,5.61
2023-04-17T01:26:23.134Z,5.61
2023-04-17T01:27:23.213Z,5.61
2023-04-17T01:28:23.072Z,5.60
2023-04-17T01:29:23.070Z,5.59
2023-04-17T01:30:23.053Z,5.59
2023-04-17T01:31:23.272Z,5.59
2023-04-17T01:32:23.070Z,5.58
2023-04-17T01:33:23.025Z,5.57
2023-04-17T01:34:23.025Z,5.56
2023-04-17T01:35:22.997Z,5.56
2023-04-17T01:36:23.001Z,5.55
2023-04-17T01:37:22.963Z,5.55
2023-04-17T01:38:22.973Z,5.55
2023-04-17T01:39:22.963Z,5.54
2023-04-17T01:40:22.919Z,5.55
2023-04-17T01:41:22.938Z,5.55
2023-04-17T01:42:22.906Z,5.55
2023-04-17T01:43:22.883Z,5.57
2023-04-17T01:44:22.894Z,5.58
2023-04-17T01:45:22.865Z,5.59
2023-04-17T01:46:22.912Z,5.60
2023-04-17T01:47:22.854Z,5.60
2023-04-17T01:48:22.820Z,5.60
2023-04-17T01:49:22.825Z,5.60
2023-04-17T01:50:22.790Z,5.60
2023-04-17T01:51:22.798Z,5.60
2023-04-17T01:52:22.785Z,5.60
2023-04-17T01:53:22.779Z,5.61
2023-04-17T01:54:22.768Z,5.62
2023-04-17T01:55:22.735Z,5.63
2023-04-17T01:56:22.723Z,5.63
2023-04-17T01:57:22.746Z,5.64
2023-04-17T01:58:22.711Z,5.64
2023-04-17T01:59:22.706Z,5.64
2023-04-17T02:00:22.671Z,5.64
2023-04-17T02:01:22.689Z,5.64
2023-04-17T02:02:22.766Z,5.64
2023-04-17T02:03:22.793Z,5.64
2023-04-17T02:04:22.768Z,5.63
2023-04-17T02:05:22.619Z,5.63
2023-04-17T02:06:22.693Z,5.63
2023-04-17T02:07:22.595Z,5.63
2023-04-17T02:08:22.565Z,5.64
2023-04-17T02:09:22.567Z,5.64
2023-04-17T02:10:22.560Z,5.64
2023-04-17T02:11:22.544Z,5.64
2023-04-17T02:12:22.539Z,5.64
2023-04-17T02:13:22.508Z,5.64
2023-04-17T02:14:22.511Z,5.64
2023-04-17T02:15:22.484Z,5.64
2023-04-17T02:16:22.519Z,5.64
2023-04-17T02:17:22.522Z,5.65
2023-04-17T02:18:22.450Z,5.67
2023-04-17T02:19:22.439Z,5.68
2023-04-17T02:20:22.413Z,5.70
2023-04-17T02:21:22.417Z,5.72
2023-04-17T02:22:22.407Z,5.72
2023-04-17T02:23:22.360Z,5.73
2023-04-17T02:24:22.371Z,5.74
2023-04-17T02:25:22.346Z,5.74
2023-04-17T02:26:22.320Z,5.74
2023-04-17T02:27:22.344Z,5.73
2023-04-17T02:28:22.309Z,5.72
2023-04-17T02:29:22.307Z,5.71
2023-04-17T02:30:22.293Z,5.71
2023-04-17T02:31:22.284Z,5.71
2023-04-17T02:32:22.245Z,5.71
2023-04-17T02:33:22.261Z,5.72
2023-04-17T02:34:22.218Z,5.73
2023-04-17T02:35:22.212Z,5.74
2023-04-17T02:36:22.194Z,5.76
2023-04-17T02:37:22.195Z,5.77
2023-04-17T02:38:22.178Z,5.77
2023-04-17T02:39:22.172Z,5.78
2023-04-17T02:40:22.272Z,5.78
2023-04-17T02:41:22.134Z,5.78
2023-04-17T02:42:22.123Z,5.77
2023-04-17T02:43:22.122Z,5.77
2023-04-17T02:44:22.119Z,5.76
2023-04-17T02:45:22.113Z,5.76
2023-04-17T02:46:22.134Z,5.76
2023-04-17T02:47:22.130Z,5.76
2023-04-17T02:48:22.078Z,5.76
2023-04-17T02:49:22.039Z,5.76
2023-04-17T02:50:22.037Z,5.75
2023-04-17T02:51:22.002Z,5.74
2023-04-17T02:52:21.992Z,5.73
2023-04-17T02:53:22.010Z,5.72
2023-04-17T02:54:21.978Z,5.72
2023-04-17T02:55:21.960Z,5.72
2023-04-17T02:56:21.949Z,5.72
2023-04-17T02:57:21.938Z,5.73
2023-04-17T02:58:21.938Z,5.73
2023-04-17T02:59:21.933Z,5.74
2023-04-17T03:00:21.907Z,5.74
2023-04-17T03:01:21.918Z,5.74
2023-04-17T03:02:22.292Z,5.75
2023-04-17T03:03:22.037Z,5.75
2023-04-17T03:04:21.926Z,5.75
2023-04-17T03:05:21.853Z,5.75
2023-04-17T03:06:21.853Z,5.75
2023-04-17T03:07:21.810Z,5.75
2023-04-17T03:08:21.813Z,5.75
2023-04-17T03:09:21.807Z,5.75
2023-04-17T03:10:21.777Z,5.76
2023-04-17T03:11:21.745Z,5.77
2023-04-17T03:12:21.745Z,5.78
2023-04-17T03:13:21.750Z,5.78
2023-04-17T03:14:21.757Z,5.79
2023-04-17T03:15:21.737Z,5.79
2023-04-17T03:16:21.715Z,5.80
2023-04-17T03:17:21.699Z,5.80
2023-04-17T03:18:21.683Z,5.80
2023-04-17T03:19:21.656Z,5.80
2023-04-17T03:20:21.661Z,5.81
2023-04-17T03:21:21.677Z,5.82
2023-04-17T03:22:21.634Z,5.83
2023-04-17T03:23:21.600Z,5.83
2023-04-17T03:24:21.620Z,5.83
2023-04-17T03:25:21.625Z,5.84
2023-04-17T03:26:21.621Z,5.85
2023-04-17T03:27:21.570Z,5.85
2023-04-17T03:28:21.541Z,5.85
2023-04-17T03:29:21.548Z,5.85
2023-04-17T03:30:21.564Z,5.85
2023-04-17T03:31:23.909Z,5.86
2023-04-17T03:32:21.510Z,5.86
2023-04-17T03:33:21.495Z,5.86
2023-04-17T03:34:21.472Z,5.86
2023-04-17T03:35:21.458Z,5.86
2023-04-17T03:36:21.456Z,5.87
2023-04-17T03:37:21.449Z,5.87
2023-04-17T03:38:21.413Z,5.87
2023-04-17T03:39:21.446Z,5.87
2023-04-17T03:40:21.401Z,5.88
2023-04-17T03:41:21.382Z,5.88
2023-04-17T03:42:21.406Z,5.89
2023-04-17T03:43:21.355Z,5.90
2023-04-17T03:44:21.382Z,5.91
2023-04-17T03:45:21.318Z,5.92
2023-04-17T03:46:21.359Z,5.93
2023-04-17T03:47:21.325Z,5.94
2023-04-17T03:48:21.366Z,5.94
2023-04-17T03:49:21.295Z,5.94
2023-04-17T03:50:21.268Z,5.95
2023-04-17T03:51:21.242Z,5.95
2023-04-17T03:52:21.254Z,5.96
2023-04-17T03:53:21.215Z,5.96
2023-04-17T03:54:21.230Z,5.97
2023-04-17T03:55:21.228Z,5.97
2023-04-17T03:56:21.180Z,5.98
2023-04-17T03:57:21.170Z,5.98
2023-04-17T03:58:21.175Z,5.98
2023-04-17T03:59:21.143Z,5.99
2023-04-17T04:00:21.126Z,6.00
2023-04-17T04:01:21.139Z,6.00
2023-04-17T04:02:21.182Z,6.01
2023-04-17T04:03:21.296Z,6.02
2023-04-17T04:04:21.201Z,6.02
2023-04-17T04:05:21.087Z,6.03
2023-04-17T04:06:21.052Z,6.04
2023-04-17T04:07:21.049Z,6.04
2023-04-17T04:08:21.029Z,6.05
2023-04-17T04:09:21.016Z,6.06
2023-04-17T04:10:21.009Z,6.07
2023-04-17T04:11:20.980Z,6.08
2023-04-17T04:12:20.969Z,6.08
2023-04-17T04:13:20.947Z,6.09
2023-04-17T04:14:20.964Z,6.10
2023-04-17T04:15:20.944Z,6.10
2023-04-17T04:16:21.002Z,6.11
2023-04-17T04:17:20.934Z,6.11
2023-04-17T04:18:20.901Z,6.11
2023-04-17T04:19:20.877Z,6.12
2023-04-17T04:20:20.866Z,6.12
2023-04-17T04:21:20.880Z,6.13
2023-04-17T04:22:20.840Z,6.13
2023-04-17T04:23:20.885Z,6.14
2023-04-17T04:24:20.810Z,6.14
2023-04-17T04:25:20.801Z,6.14
2023-04-17T04:26:20.797Z,6.14
2023-04-17T04:27:20.775Z,6.14
2023-04-17T04:28:20.759Z,6.14
2023-04-17T04:29:20.748Z,6.14
2023-04-17T04:30:20.754Z,6.14
2023-04-17T04:31:20.812Z,6.15
2023-04-17T04:32:20.740Z,6.15
2023-04-17T04:33:20.905Z,6.16
2023-04-17T04:34:20.699Z,6.17
2023-04-17T04:35:20.672Z,6.17
2023-04-17T04:36:20.674Z,6.17
2023-04-17T04:37:20.651Z,6.18
2023-04-17T04:38:20.648Z,6.19
2023-04-17T04:39:20.634Z,6.19
2023-04-17T04:40:20.610Z,6.19
2023-04-17T04:41:20.633Z,6.19
2023-04-17T04:42:20.615Z,6.20
2023-04-17T04:43:22.448Z,6.20
2023-04-17T04:44:20.582Z,6.21
2023-04-17T04:45:20.544Z,6.21
2023-04-17T04:46:20.591Z,6.21
2023-04-17T04:47:20.558Z,6.21
2023-04-17T04:48:20.535Z,6.21
2023-04-17T04:49:20.490Z,6.21
2023-04-17T04:50:20.490Z,6.21
2023-04-17T04:51:20.510Z,6.21
2023-04-17T04:52:20.472Z,6.21
2023-04-17T04:53:20.462Z,6.22
2023-04-17T04:54:20.434Z,6.21
2023-04-17T04:55:20.426Z,6.20
2023-04-17T04:56:20.443Z,6.19
2023-04-17T04:57:20.404Z,6.18
2023-04-17T04:58:20.399Z,6.17
2023-04-17T04:59:20.379Z,6.16
2023-04-17T05:00:20.386Z,6.14
2023-04-17T05:01:20.417Z,6.14
2023-04-17T05:02:20.463Z,6.14
2023-04-17T05:03:20.467Z,6.13
2023-04-17T05:04:20.381Z,6.13
2023-04-17T05:05:20.318Z,6.13
2023-04-17T05:06:20.309Z,6.13
2023-04-17T05:07:20.274Z,6.14
2023-04-17T05:08:20.269Z,6.15
2023-04-17T05:09:20.238Z,6.16
2023-04-17T05:10:20.262Z,6.15
2023-04-17T05:11:20.278Z,6.14
2023-04-17T05:12:20.243Z,6.14
2023-04-17T05:13:20.206Z,6.13
2023-04-17T05:14:20.178Z,6.13
2023-04-17T05:15:20.190Z,6.12
2023-04-17T05:16:20.184Z,6.12
2023-04-17T05:17:20.190Z,6.11
2023-04-17T05:18:20.134Z,6.11
2023-04-17T05:19:20.119Z,6.10
2023-04-17T05:20:20.135Z,6.09
2023-04-17T05:21:20.087Z,6.08
2023-04-17T05:22:20.106Z,6.07
2023-04-17T05:23:20.080Z,6.06
2023-04-17T05:24:20.088Z,6.07
2023-04-17T05:25:20.039Z,6.08
2023-04-17T05:26:20.034Z,6.09
2023-04-17T05:27:20.039Z,6.09
2023-04-17T05:28:20.034Z,6.10
2023-04-17T05:29:19.989Z,6.12
2023-04-17T05:30:20.003Z,6.12
2023-04-17T05:31:19.994Z,6.13
2023-04-17T05:32:20.015Z,6.13
2023-04-17T05:33:19.978Z,6.13
2023-04-17T05:34:19.933Z,6.13
2023-04-17T05:35:19.914Z,6.13
2023-04-17T05:36:19.932Z,6.14
2023-04-17T05:37:19.902Z,6.14
2023-04-17T05:38:19.901Z,6.15
2023-04-17T05:39:19.866Z,6.16
2023-04-17T05:40:19.857Z,6.16
2023-04-17T05:41:19.868Z,6.17
2023-04-17T05:42:19.821Z,6.17
2023-04-17T05:43:19.823Z,6.18
2023-04-17T05:44:19.843Z,6.19
2023-04-17T05:45:19.793Z,6.19
2023-04-17T05:46:19.830Z,6.20
2023-04-17T05:47:19.865Z,6.20
2023-04-17T05:48:19.764Z,6.21
2023-04-17T05:49:19.733Z,6.21
2023-04-17T05:50:19.725Z,6.21
2023-04-17T05:51:19.730Z,6.21
2023-04-17T05:52:19.698Z,6.21
2023-04-17T05:53:19.747Z,6.21
2023-04-17T05:54:19.671Z,6.21
2023-04-17T05:55:19.679Z,6.20
2023-04-17T05:56:19.673Z,6.20
2023-04-17T05:57:19.643Z,6.20
2023-04-17T05:58:23.830Z,6.19
2023-04-17T05:59:19.608Z,6.19
2023-04-17T06:00:19.610Z,6.19
2023-04-17T06:01:19.597Z,6.19
2023-04-17T06:02:19.711Z,6.20
2023-04-17T06:03:19.846Z,6.20
2023-04-17T06:04:19.924Z,6.21
2023-04-17T06:05:19.698Z,6.21
2023-04-17T06:06:19.511Z,6.22
2023-04-17T06:07:19.529Z,6.21
2023-04-17T06:08:19.524Z,6.18
2023-04-17T06:09:19.479Z,6.15
2023-04-17T06:10:19.510Z,6.13
2023-04-17T06:11:19.488Z,6.11
2023-04-17T06:12:19.460Z,6.08
2023-04-17T06:13:19.453Z,6.06
2023-04-17T06:14:19.476Z,6.03
2023-04-17T06:15:19.432Z,6.02
2023-04-17T06:16:19.432Z,6.01
2023-04-17T06:17:19.407Z,6.01
2023-04-17T06:18:19.416Z,6.01
2023-04-17T06:19:19.380Z,6.01
2023-04-17T06:20:19.370Z,6.01
2023-04-17T06:21:19.336Z,6.01
2023-04-17T06:22:19.329Z,6.00
2023-04-17T06:23:19.368Z,6.00
2023-04-17T06:24:19.343Z,5.99
2023-04-17T06:25:19.278Z,5.98
2023-04-17T06:26:19.267Z,5.96
2023-04-17T06:27:19.269Z,5.95
2023-04-17T06:28:19.300Z,5.93
2023-04-17T06:29:19.264Z,5.92
2023-04-17T06:30:19.279Z,5.91
2023-04-17T06:31:19.220Z,5.91
2023-04-17T06:32:19.253Z,5.91
2023-04-17T06:33:19.176Z,5.90
2023-04-17T06:34:19.191Z,5.89
2023-04-17T06:35:19.166Z,5.87
2023-04-17T06:36:19.190Z,5.85
2023-04-17T06:37:19.153Z,5.83
2023-04-17T06:38:19.106Z,5.81
2023-04-17T06:39:19.146Z,5.79
2023-04-17T06:40:19.095Z,5.77
2023-04-17T06:41:19.074Z,5.75
2023-04-17T06:42:19.086Z,5.73
2023-04-17T06:43:19.103Z,5.70
2023-04-17T06:44:19.043Z,5.65
2023-04-17T06:45:19.017Z,5.60
2023-04-17T06:46:19.068Z,5.56
2023-04-17T06:47:19.002Z,5.54
2023-04-17T06:48:18.981Z,5.52
2023-04-17T06:49:18.978Z,5.51
2023-04-17T06:50:18.958Z,5.50
2023-04-17T06:51:18.946Z,5.50
2023-04-17T06:52:18.938Z,5.50
2023-04-17T06:53:19.030Z,5.49
2023-04-17T06:54:18.942Z,5.49
2023-04-17T06:55:18.897Z,5.49
2023-04-17T06:56:18.877Z,5.51
2023-04-17T06:57:18.869Z,5.52
2023-04-17T06:58:18.854Z,5.55
2023-04-17T06:59:18.889Z,5.58
2023-04-17T07:00:18.827Z,5.60
2023-04-17T07:01:18.829Z,5.62
2023-04-17T07:02:18.902Z,5.63
2023-04-17T07:03:19.016Z,5.64
2023-04-17T07:04:18.871Z,5.64
2023-04-17T07:05:18.776Z,5.65
2023-04-17T07:06:18.756Z,5.66
2023-04-17T07:07:18.744Z,5.67
2023-04-17T07:08:18.715Z,5.68
2023-04-17T07:09:18.716Z,5.68
2023-04-17T07:10:18.710Z,5.67
2023-04-17T07:11:18.688Z,5.67
2023-04-17T07:12:18.665Z,5.67
2023-04-17T07:13:18.664Z,5.68
2023-04-17T07:14:18.641Z,5.69
2023-04-17T07:15:18.690Z,5.71
2023-04-17T07:16:18.650Z,5.74
2023-04-17T07:17:18.624Z,5.76
2023-04-17T07:18:18.594Z,5.78
2023-04-17T07:19:18.574Z,5.81
2023-04-17T07:20:18.645Z,5.83
2023-04-17T07:21:18.548Z,5.84
2023-04-17T07:22:18.534Z,5.85
2023-04-17T07:23:18.548Z,5.85
2023-04-17T07:24:18.514Z,5.85
2023-04-17T07:25:18.501Z,5.85
2023-04-17T07:26:18.499Z,5.85
2023-04-17T07:27:18.478Z,5.85
2023-04-17T07:28:18.464Z,5.86
2023-04-17T07:29:18.434Z,5.86
2023-04-17T07:30:18.439Z,5.87
2023-04-17T07:31:18.486Z,5.87
2023-04-17T07:32:18.392Z,5.88
2023-04-17T07:33:18.412Z,5.88
2023-04-17T07:34:18.364Z,5.89
2023-04-17T07:35:18.363Z,5.90
2023-04-17T07:36:18.362Z,5.91
2023-04-17T07:37:18.335Z,5.93
2023-04-17T07:38:18.330Z,5.94
2023-04-17T07:39:18.314Z,5.95
2023-04-17T07:40:18.290Z,5.96
2023-04-17T07:41:18.289Z,5.97
2023-04-17T07:42:18.286Z,5.98
2023-04-17T07:43:18.263Z,5.99
2023-04-17T07:44:18.267Z,6.00
2023-04-17T07:45:18.244Z,6.01
2023-04-17T07:46:18.266Z,6.02
2023-04-17T07:47:18.381Z,6.02
2023-04-17T07:48:18.212Z,6.03
2023-04-17T07:49:18.495Z,6.04
2023-04-17T07:50:18.165Z,6.05
2023-04-17T07:51:18.168Z,6.06
2023-04-17T07:52:18.304Z,6.07
2023-04-17T07:53:18.128Z,6.08
2023-04-17T07:54:18.123Z,6.09
2023-04-17T07:55:18.110Z,6.09
2023-04-17T07:56:18.080Z,6.08
2023-04-17T07:57:18.193Z,6.08
2023-04-17T07:58:18.057Z,6.07
2023-04-17T07:59:18.049Z,6.08
2023-04-17T08:00:18.031Z,6.09
2023-04-17T08:01:18.020Z,6.09
2023-04-17T08:02:18.692Z,6.10
2023-04-17T08:03:18.244Z,6.10
2023-04-17T08:04:18.123Z,6.11
2023-04-17T08:05:18.052Z,6.12
2023-04-17T08:06:17.948Z,6.12
2023-04-17T08:07:17.945Z,6.13
2023-04-17T08:08:17.951Z,6.13
2023-04-17T08:09:17.944Z,6.14
2023-04-17T08:10:17.897Z,6.14
2023-04-17T08:11:17.882Z,6.14
2023-04-17T08:12:18.043Z,6.14
2023-04-17T08:13:17.860Z,6.14
2023-04-17T08:14:17.846Z,6.14
2023-04-17T08:15:17.832Z,6.14
2023-04-17T08:16:17.858Z,6.15
2023-04-17T08:17:17.941Z,6.15
2023-04-17T08:18:17.803Z,6.16
2023-04-17T08:19:17.801Z,6.17
2023-04-17T08:20:17.780Z,6.19
2023-04-17T08:21:17.771Z,6.21
2023-04-17T08:22:17.774Z,6.22
2023-04-17T08:23:17.754Z,6.24
2023-04-17T08:24:19.697Z,6.25
2023-04-17T08:25:17.711Z,6.25
2023-04-17T08:26:17.712Z,6.25
2023-04-17T08:27:17.698Z,6.25
2023-04-17T08:28:17.668Z,6.26
2023-04-17T08:29:17.655Z,6.27
2023-04-17T08:30:19.350Z,6.27
2023-04-17T08:31:17.673Z,6.28
2023-04-17T08:32:17.691Z,6.28
2023-04-17T08:33:17.616Z,6.29
2023-04-17T08:34:17.594Z,6.30
2023-04-17T08:35:17.620Z,6.31
2023-04-17T08:36:17.575Z,6.32
2023-04-17T08:37:17.567Z,6.33
2023-04-17T08:38:17.556Z,6.33
2023-04-17T08:39:17.531Z,6.34
2023-04-17T08:40:17.525Z,6.36
2023-04-17T08:41:17.501Z,6.37
2023-04-17T08:42:18.885Z,6.38
2023-04-17T08:43:17.477Z,6.38
2023-04-17T08:44:17.461Z,6.39
2023-04-17T08:45:17.527Z,6.39
2023-04-17T08:46:17.444Z,6.40
2023-04-17T08:47:17.458Z,6.41
2023-04-17T08:48:17.452Z,6.41
2023-04-17T08:49:17.417Z,6.42
2023-04-17T08:50:17.385Z,6.42
2023-04-17T08:51:17.374Z,6.43
2023-04-17T08:52:17.364Z,6.44
2023-04-17T08:53:17.387Z,6.45
2023-04-17T08:54:17.355Z,6.46
2023-04-17T08:55:17.332Z,6.47
2023-04-17T08:56:17.334Z,6.49
2023-04-17T08:57:17.317Z,6.50
2023-04-17T08:58:17.290Z,6.51
2023-04-17T08:59:17.296Z,6.52
2023-04-17T09:00:17.261Z,6.54
2023-04-17T09:01:17.387Z,6.55
2023-04-17T09:02:17.433Z,6.56
2023-04-17T09:03:17.358Z,6.58
2023-04-17T09:04:17.291Z,6.59
2023-04-17T09:05:17.200Z,6.60
2023-04-17T09:06:17.181Z,6.61
2023-04-17T09:07:17.205Z,6.62
2023-04-17T09:08:17.161Z,6.63
2023-04-17T09:09:17.155Z,6.64
2023-04-17T09:10:17.132Z,6.66
2023-04-17T09:11:17.169Z,6.67
2023-04-17T09:12:17.116Z,6.68
2023-04-17T09:13:17.113Z,6.69
2023-04-17T09:14:17.081Z,6.70
2023-04-17T09:15:17.080Z,6.71
2023-04-17T09:16:17.082Z,6.72
2023-04-17T09:17:17.048Z,6.73
2023-04-17T09:18:17.059Z,6.74
2023-04-17T09:19:17.018Z,6.75
2023-04-17T09:20:17.029Z,6.76
2023-04-17T09:21:16.997Z,6.78
2023-04-17T09:22:16.977Z,6.79
2023-04-17T09:23:16.981Z,6.80
2023-04-17T09:24:16.960Z,6.82
2023-04-17T09:25:16.949Z,6.83
2023-04-17T09:26:16.933Z,6.84
2023-04-17T09:27:16.921Z,6.85
2023-04-17T09:28:16.913Z,6.86
2023-04-17T09:29:17.210Z,6.87
2023-04-17T09:30:16.893Z,6.89
2023-04-17T09:31:16.902Z,6.90
2023-04-17T09:32:16.869Z,6.91
2023-04-17T09:33:16.842Z,6.92
2023-04-17T09:34:16.839Z,6.93
2023-04-17T09:35:16.874Z,6.93
2023-04-17T09:36:16.803Z,6.94
2023-04-17T09:37:16.793Z,6.95
2023-04-17T09:38:16.779Z,6.96
2023-04-17T09:39:16.775Z,6.96
2023-04-17T09:40:16.762Z,6.97
2023-04-17T09:41:16.743Z,6.98
2023-04-17T09:42:16.731Z,6.99
2023-04-17T09:43:16.717Z,7.00
2023-04-17T09:44:16.717Z,7.01
2023-04-17T09:45:16.696Z,7.03
2023-04-17T09:46:16.764Z,7.03
2023-04-17T09:47:16.663Z,7.03
2023-04-17T09:48:16.671Z,7.03
2023-04-17T09:49:16.660Z,7.03
2023-04-17T09:50:16.663Z,7.04
2023-04-17T09:51:16.630Z,7.05
2023-04-17T09:52:16.637Z,7.06
2023-04-17T09:53:16.617Z,7.07
2023-04-17T09:54:16.682Z,7.09
2023-04-17T09:55:16.677Z,7.10
2023-04-17T09:56:16.566Z,7.12
2023-04-17T09:57:16.580Z,7.14
2023-04-17T09:58:16.584Z,7.15
2023-04-17T09:59:16.640Z,7.17
2023-04-17T10:00:16.531Z,7.19
2023-04-17T10:01:16.524Z,7.20
2023-04-17T10:02:16.634Z,7.22
2023-04-17T10:03:16.723Z,7.23
2023-04-17T10:04:16.859Z,7.24
2023-04-17T10:05:16.527Z,7.26
2023-04-17T10:06:16.423Z,7.28
2023-04-17T10:07:16.685Z,7.29
2023-04-17T10:08:16.393Z,7.31
2023-04-17T10:09:16.408Z,7.32
2023-04-17T10:10:16.415Z,7.33
2023-04-17T10:11:16.408Z,7.34
2023-04-17T10:12:16.348Z,7.35
2023-04-17T10:13:16.357Z,7.36
2023-04-17T10:14:16.321Z,7.37
2023-04-17T10:15:16.328Z,7.38
2023-04-17T10:16:16.335Z,7.40
2023-04-17T10:17:16.285Z,7.41
2023-04-17T10:18:16.286Z,7.42
2023-04-17T10:19:16.250Z,7.43
2023-04-17T10:20:16.273Z,7.44
2023-04-17T10:21:16.236Z,7.45
2023-04-17T10:22:16.235Z,7.45
2023-04-17T10:23:16.200Z,7.46
2023-04-17T10:24:16.182Z,7.47
2023-04-17T10:25:16.189Z,7.48
2023-04-17T10:26:16.174Z,7.49
2023-04-17T10:27:16.161Z,7.50
2023-04-17T10:28:16.135Z,7.51
2023-04-17T10:29:16.130Z,7.52
2023-04-17T10:30:16.168Z,7.53
2023-04-17T10:31:16.157Z,7.54
2023-04-17T10:32:16.262Z,7.55
2023-04-17T10:33:16.087Z,7.56
2023-04-17T10:34:16.069Z,7.57
2023-04-17T10:35:16.057Z,7.58
2023-04-17T10:36:16.050Z,7.59
2023-04-17T10:37:16.038Z,7.60
2023-04-17T10:38:16.013Z,7.61
2023-04-17T10:39:16.005Z,7.62
2023-04-17T10:40:16.027Z,7.63
2023-04-17T10:41:15.974Z,7.64
2023-04-17T10:42:15.962Z,7.66
2023-04-17T10:43:15.956Z,7.67
2023-04-17T10:44:15.932Z,7.69
2023-04-17T10:45:15.969Z,7.70
2023-04-17T10:46:16.003Z,7.71
2023-04-17T10:47:16.195Z,7.72
2023-04-17T10:48:15.929Z,7.73
2023-04-17T10:49:15.888Z,7.73
2023-04-17T10:50:15.975Z,7.75
2023-04-17T10:51:15.867Z,7.76
2023-04-17T10:52:16.088Z,7.76
2023-04-17T10:53:15.823Z,7.77
2023-04-17T10:54:15.981Z,7.77
2023-04-17T10:55:15.833Z,7.78
2023-04-17T10:56:15.793Z,7.78
2023-04-17T10:57:15.768Z,7.79
2023-04-17T10:58:15.754Z,7.79
2023-04-17T10:59:16.014Z,7.79
2023-04-17T11:00:15.733Z,7.80
2023-04-17T11:01:15.820Z,7.80
2023-04-17T11:02:15.745Z,7.80
2023-04-17T11:03:15.896Z,7.81
2023-04-17T11:04:15.701Z,7.81
2023-04-17T11:05:15.689Z,7.81
2023-04-17T11:06:15.692Z,7.81
2023-04-17T11:07:15.651Z,7.81
2023-04-17T11:08:15.671Z,7.81
2023-04-17T11:09:16.062Z,7.81
2023-04-17T11:10:15.617Z,7.81
2023-04-17T11:11:18.499Z,7.81
2023-04-17T11:12:15.790Z,7.81
2023-04-17T11:13:15.580Z,7.80
2023-04-17T11:14:15.571Z,7.81
2023-04-17T11:15:15.545Z,7.81
2023-04-17T11:16:15.624Z,7.81
2023-04-17T11:17:15.590Z,7.82
2023-04-17T11:18:15.499Z,7.82
2023-04-17T11:19:15.588Z,7.82
2023-04-17T11:20:15.484Z,7.83
2023-04-17T11:21:15.478Z,7.83
2023-04-17T11:22:15.474Z,7.84
2023-04-17T11:23:15.445Z,7.85
2023-04-17T11:24:15.428Z,7.85
2023-04-17T11:25:15.453Z,7.86
2023-04-17T11:26:15.540Z,7.87
2023-04-17T11:27:15.390Z,7.88
2023-04-17T11:28:15.399Z,7.89
2023-04-17T11:29:15.364Z,7.89
2023-04-17T11:30:15.360Z,7.90
2023-04-17T11:31:17.941Z,7.91
2023-04-17T11:32:15.360Z,7.92
2023-04-17T11:33:15.313Z,7.93
2023-04-17T11:34:15.326Z,7.95
2023-04-17T11:35:15.298Z,7.96
2023-04-17T11:36:15.298Z,7.97
2023-04-17T11:37:15.300Z,7.99
2023-04-17T11:38:15.252Z,8.01
2023-04-17T11:39:15.237Z,8.02
2023-04-17T11:40:15.235Z,8.04
2023-04-17T11:41:15.230Z,8.05
2023-04-17T11:42:15.207Z,8.06
2023-04-17T11:43:15.219Z,8.07
2023-04-17T11:44:15.188Z,8.08
2023-04-17T11:45:15.168Z,8.09
2023-04-17T11:46:15.181Z,8.09
2023-04-17T11:47:15.148Z,8.11
2023-04-17T11:48:15.138Z,8.11
2023-04-17T11:49:15.130Z,8.12
2023-04-17T11:50:15.135Z,8.13
2023-04-17T11:51:15.095Z,8.14
2023-04-17T11:52:17.528Z,8.15
2023-04-17T11:53:15.067Z,8.16
2023-04-17T11:54:15.068Z,8.17
2023-04-17T11:55:15.049Z,8.18
2023-04-17T11:56:15.102Z,8.20
2023-04-17T11:57:15.058Z,8.21
2023-04-17T11:58:15.030Z,8.23
2023-04-17T11:59:14.994Z,8.24
2023-04-17T12:00:14.991Z,8.26
2023-04-17T12:01:14.971Z,8.27
2023-04-17T12:02:15.079Z,8.28
2023-04-17T12:03:15.109Z,8.29
2023-04-17T12:04:15.208Z,8.31
2023-04-17T12:05:15.034Z,8.33
2023-04-17T12:06:14.931Z,8.34
2023-04-17T12:07:14.899Z,8.36
2023-04-17T12:08:14.891Z,8.38
2023-04-17T12:09:14.869Z,8.40
2023-04-17T12:10:14.879Z,8.42
2023-04-17T12:11:15.684Z,8.44
2023-04-17T12:12:14.856Z,8.46
2023-04-17T12:13:14.817Z,8.48
2023-04-17T12:14:15.058Z,8.50
2023-04-17T12:15:14.791Z,8.53
2023-04-17T12:16:14.816Z,8.55
2023-04-17T12:17:14.784Z,8.57
2023-04-17T12:18:14.767Z,8.60
2023-04-17T12:19:14.758Z,8.63
2023-04-17T12:20:14.751Z,8.65
2023-04-17T12:21:14.741Z,8.68
2023-04-17T12:22:14.714Z,8.70
2023-04-17T12:23:14.716Z,8.73
2023-04-17T12:24:14.712Z,8.75
2023-04-17T12:25:14.676Z,8.77
2023-04-17T12:26:14.671Z,8.79
2023-04-17T12:27:14.672Z,8.81
2023-04-17T12:28:14.648Z,8.83
2023-04-17T12:29:14.620Z,8.86
2023-04-17T12:30:14.653Z,8.88
2023-04-17T12:31:14.673Z,8.91
2023-04-17T12:32:14.655Z,8.94
2023-04-17T12:33:14.586Z,8.97
2023-04-17T12:34:14.881Z,9.00
2023-04-17T12:35:14.550Z,9.03
2023-04-17T12:36:14.601Z,9.06
2023-04-17T12:37:14.540Z,9.09
2023-04-17T12:38:14.538Z,9.13
2023-04-17T12:39:14.517Z,9.17
2023-04-17T12:40:14.509Z,9.20
2023-04-17T12:41:14.501Z,9.23
2023-04-17T12:42:14.470Z,9.26
2023-04-17T12:43:14.508Z,9.28
2023-04-17T12:44:14.720Z,9.30
2023-04-17T12:45:14.437Z,9.33
2023-04-17T12:46:14.481Z,9.35
2023-04-17T12:47:14.413Z,9.36
2023-04-17T12:48:14.404Z,9.38
2023-04-17T12:49:14.541Z,9.41
2023-04-17T12:50:14.388Z,9.44
2023-04-17T12:51:14.362Z,9.48
2023-04-17T12:52:14.349Z,9.51
2023-04-17T12:53:14.382Z,9.56
2023-04-17T12:54:14.592Z,9.61
2023-04-17T12:55:14.323Z,9.66
2023-04-17T12:56:14.305Z,9.70
2023-04-17T12:57:14.302Z,9.73
2023-04-17T12:58:14.305Z,9.75
2023-04-17T12:59:14.272Z,9.77
2023-04-17T13:00:14.308Z,9.79
2023-04-17T13:01:14.255Z,9.81
2023-04-17T13:02:14.389Z,9.83
2023-04-17T13:03:14.407Z,9.85
2023-04-17T13:04:14.812Z,9.87
2023-04-17T13:05:14.188Z,9.89
2023-04-17T13:06:14.181Z,9.92
2023-04-17T13:07:14.186Z,9.94
2023-04-17T13:08:14.152Z,9.96
2023-04-17T13:09:14.230Z,9.98
2023-04-17T13:10:14.151Z,10.00
2023-04-17T13:11:14.117Z,10.02
2023-04-17T13:12:14.109Z,10.04
2023-04-17T13:13:14.092Z,10.05
2023-04-17T13:14:14.310Z,10.06
2023-04-17T13:15:14.074Z,10.07
2023-04-17T13:16:14.167Z,10.08
2023-04-17T13:17:15.218Z,10.09
2023-04-17T13:18:14.035Z,10.09